sensor_id;sensor_type;location;lat;lon;timestamp;P1;durP1;ratioP1;P2;durP2;ratioP2
17369;SDS011;8802;52.402;4.920;2023-05-15T00:01:33;20.55;;;18.65;;
17369;SDS011;8802;52.402;4.920;2023-05-15T00:04:00;19.15;;;17.15;;
17369;SDS011;8802;52.402;4.920;2023-05-15T00:06:27;18.73;;;17.10;;
17369;SDS011;8802;52.402;4.920;2023-05-15T00:08:53;17.80;;;16.20;;
17369;SDS011;8802;52.402;4.920;2023-05-15T00:11:22;18.98;;;17.25;;
17369;SDS011;8802;52.402;4.920;2023-05-15T00:13:51;19.15;;;17.33;;
17369;SDS011;8802;52.402;4.920;2023-05-15T00:16:18;20.08;;;18.05;;
17369;SDS011;8802;52.402;4.920;2023-05-15T00:18:45;18.83;;;16.95;;
17369;SDS011;8802;52.402;4.920;2023-05-15T00:21:12;19.75;;;17.77;;
17369;SDS011;8802;52.402;4.920;2023-05-15T00:23:39;18.73;;;17.05;;
17369;SDS011;8802;52.402;4.920;2023-05-15T00:26:06;17.50;;;15.90;;
17369;SDS011;8802;52.402;4.920;2023-05-15T00:28:34;17.63;;;15.85;;
17369;SDS011;8802;52.402;4.920;2023-05-15T00:31:01;17.88;;;16.17;;
17369;SDS011;8802;52.402;4.920;2023-05-15T00:33:28;18.67;;;16.77;;
17369;SDS011;8802;52.402;4.920;2023-05-15T00:35:55;19.05;;;17.15;;
17369;SDS011;8802;52.402;4.920;2023-05-15T00:38:22;18.55;;;16.85;;
17369;SDS011;8802;52.402;4.920;2023-05-15T00:40:48;19.15;;;17.25;;
17369;SDS011;8802;52.402;4.920;2023-05-15T00:43:17;18.33;;;16.83;;
17369;SDS011;8802;52.402;4.920;2023-05-15T00:45:46;18.73;;;16.77;;
17369;SDS011;8802;52.402;4.920;2023-05-15T00:48:14;18.88;;;16.88;;
17369;SDS011;8802;52.402;4.920;2023-05-15T00:50:41;19.25;;;17.27;;
17369;SDS011;8802;52.402;4.920;2023-05-15T00:53:08;19.90;;;17.90;;
17369;SDS011;8802;52.402;4.920;2023-05-15T00:55:36;18.95;;;17.30;;
17369;SDS011;8802;52.402;4.920;2023-05-15T00:58:04;18.45;;;16.48;;
17369;SDS011;8802;52.402;4.920;2023-05-15T01:00:33;17.95;;;16.23;;
17369;SDS011;8802;52.402;4.920;2023-05-15T01:03:01;19.67;;;17.67;;
17369;SDS011;8802;52.402;4.920;2023-05-15T01:05:29;18.27;;;16.38;;
17369;SDS011;8802;52.402;4.920;2023-05-15T01:08:02;17.17;;;15.57;;
17369;SDS011;8802;52.402;4.920;2023-05-15T01:10:33;20.45;;;17.63;;
17369;SDS011;8802;52.402;4.920;2023-05-15T01:13:00;17.75;;;15.90;;
17369;SDS011;8802;52.402;4.920;2023-05-15T01:15:28;16.25;;;14.82;;
17369;SDS011;8802;52.402;4.920;2023-05-15T01:17:55;18.77;;;16.88;;
17369;SDS011;8802;52.402;4.920;2023-05-15T01:20:23;17.67;;;15.68;;
17369;SDS011;8802;52.402;4.920;2023-05-15T01:22:58;16.52;;;14.90;;
17369;SDS011;8802;52.402;4.920;2023-05-15T01:25:42;17.38;;;15.77;;
17369;SDS011;8802;52.402;4.920;2023-05-15T01:28:22;15.43;;;13.88;;
17369;SDS011;8802;52.402;4.920;2023-05-15T01:30:55;15.27;;;13.90;;
17369;SDS011;8802;52.402;4.920;2023-05-15T01:33:27;15.80;;;14.30;;
17369;SDS011;8802;52.402;4.920;2023-05-15T01:35:57;16.75;;;15.10;;
17369;SDS011;8802;52.402;4.920;2023-05-15T01:38:34;16.55;;;15.05;;
17369;SDS011;8802;52.402;4.920;2023-05-15T01:41:06;16.80;;;15.20;;
17369;SDS011;8802;52.402;4.920;2023-05-15T01:43:38;14.40;;;12.90;;
17369;SDS011;8802;52.402;4.920;2023-05-15T01:46:07;17.65;;;15.65;;
17369;SDS011;8802;52.402;4.920;2023-05-15T01:48:37;15.52;;;14.23;;
17369;SDS011;8802;52.402;4.920;2023-05-15T01:51:06;16.83;;;15.32;;
17369;SDS011;8802;52.402;4.920;2023-05-15T01:53:35;16.92;;;15.32;;
17369;SDS011;8802;52.402;4.920;2023-05-15T01:56:04;17.08;;;15.38;;
17369;SDS011;8802;52.402;4.920;2023-05-15T01:58:32;15.68;;;14.27;;
17369;SDS011;8802;52.402;4.920;2023-05-15T02:01:01;15.35;;;13.95;;
17369;SDS011;8802;52.402;4.920;2023-05-15T02:03:29;20.60;;;18.45;;
17369;SDS011;8802;52.402;4.920;2023-05-15T02:05:58;21.33;;;19.05;;
17369;SDS011;8802;52.402;4.920;2023-05-15T02:08:25;19.83;;;17.75;;
17369;SDS011;8802;52.402;4.920;2023-05-15T02:10:53;21.45;;;19.15;;
17369;SDS011;8802;52.402;4.920;2023-05-15T02:13:21;21.05;;;18.90;;
17369;SDS011;8802;52.402;4.920;2023-05-15T02:15:51;20.75;;;18.42;;
17369;SDS011;8802;52.402;4.920;2023-05-15T02:18:19;20.20;;;18.10;;
17369;SDS011;8802;52.402;4.920;2023-05-15T02:20:47;20.55;;;18.13;;
17369;SDS011;8802;52.402;4.920;2023-05-15T02:23:14;19.15;;;17.25;;
17369;SDS011;8802;52.402;4.920;2023-05-15T02:25:42;18.38;;;16.58;;
17369;SDS011;8802;52.402;4.920;2023-05-15T02:28:16;19.90;;;18.15;;
17369;SDS011;8802;52.402;4.920;2023-05-15T02:30:52;18.95;;;17.15;;
17369;SDS011;8802;52.402;4.920;2023-05-15T02:33:24;18.05;;;16.35;;
17369;SDS011;8802;52.402;4.920;2023-05-15T02:36:01;19.73;;;17.83;;
17369;SDS011;8802;52.402;4.920;2023-05-15T02:38:32;19.90;;;18.02;;
17369;SDS011;8802;52.402;4.920;2023-05-15T02:41:02;20.33;;;18.35;;
17369;SDS011;8802;52.402;4.920;2023-05-15T02:43:32;19.10;;;17.15;;
17369;SDS011;8802;52.402;4.920;2023-05-15T02:46:01;17.88;;;15.70;;
17369;SDS011;8802;52.402;4.920;2023-05-15T02:48:30;15.35;;;13.93;;
17369;SDS011;8802;52.402;4.920;2023-05-15T02:50:58;14.43;;;13.13;;
17369;SDS011;8802;52.402;4.920;2023-05-15T02:53:25;13.32;;;12.13;;
17369;SDS011;8802;52.402;4.920;2023-05-15T02:55:53;12.82;;;11.52;;
17369;SDS011;8802;52.402;4.920;2023-05-15T02:58:20;10.75;;;9.73;;
17369;SDS011;8802;52.402;4.920;2023-05-15T03:00:47;12.15;;;11.15;;
17369;SDS011;8802;52.402;4.920;2023-05-15T03:03:14;9.98;;;9.13;;
17369;SDS011;8802;52.402;4.920;2023-05-15T03:05:42;11.40;;;10.48;;
17369;SDS011;8802;52.402;4.920;2023-05-15T03:08:09;12.52;;;11.43;;
17369;SDS011;8802;52.402;4.920;2023-05-15T03:10:35;14.25;;;12.95;;
17369;SDS011;8802;52.402;4.920;2023-05-15T03:13:02;13.27;;;12.10;;
17369;SDS011;8802;52.402;4.920;2023-05-15T03:15:29;14.18;;;12.98;;
17369;SDS011;8802;52.402;4.920;2023-05-15T03:17:56;12.57;;;11.38;;
17369;SDS011;8802;52.402;4.920;2023-05-15T03:20:23;13.55;;;12.43;;
17369;SDS011;8802;52.402;4.920;2023-05-15T03:22:51;13.70;;;12.52;;
17369;SDS011;8802;52.402;4.920;2023-05-15T03:25:18;13.32;;;12.13;;
17369;SDS011;8802;52.402;4.920;2023-05-15T03:27:45;13.20;;;11.90;;
17369;SDS011;8802;52.402;4.920;2023-05-15T03:30:12;15.63;;;14.32;;
17369;SDS011;8802;52.402;4.920;2023-05-15T03:32:39;13.00;;;12.00;;
17369;SDS011;8802;52.402;4.920;2023-05-15T03:35:06;14.23;;;13.02;;
17369;SDS011;8802;52.402;4.920;2023-05-15T03:37:33;14.20;;;13.00;;
17369;SDS011;8802;52.402;4.920;2023-05-15T03:40:02;14.98;;;13.68;;
17369;SDS011;8802;52.402;4.920;2023-05-15T03:42:31;16.55;;;14.80;;
17369;SDS011;8802;52.402;4.920;2023-05-15T03:44:58;14.70;;;13.45;;
17369;SDS011;8802;52.402;4.920;2023-05-15T03:47:25;16.08;;;14.68;;
17369;SDS011;8802;52.402;4.920;2023-05-15T03:49:52;15.85;;;14.45;;
17369;SDS011;8802;52.402;4.920;2023-05-15T03:52:18;16.85;;;15.35;;
17369;SDS011;8802;52.402;4.920;2023-05-15T03:54:45;18.92;;;17.08;;
17369;SDS011;8802;52.402;4.920;2023-05-15T03:57:14;18.27;;;16.60;;
17369;SDS011;8802;52.402;4.920;2023-05-15T03:59:41;19.00;;;17.40;;
17369;SDS011;8802;52.402;4.920;2023-05-15T04:02:08;19.95;;;18.05;;
17369;SDS011;8802;52.402;4.920;2023-05-15T04:04:35;18.38;;;16.85;;
17369;SDS011;8802;52.402;4.920;2023-05-15T04:07:02;16.25;;;14.73;;
17369;SDS011;8802;52.402;4.920;2023-05-15T04:09:29;17.20;;;15.52;;
17369;SDS011;8802;52.402;4.920;2023-05-15T04:11:56;15.05;;;13.60;;
17369;SDS011;8802;52.402;4.920;2023-05-15T04:14:24;14.77;;;13.38;;
17369;SDS011;8802;52.402;4.920;2023-05-15T04:16:51;13.65;;;12.43;;
17369;SDS011;8802;52.402;4.920;2023-05-15T04:19:18;13.32;;;12.05;;
17369;SDS011;8802;52.402;4.920;2023-05-15T04:21:45;11.95;;;10.90;;
17369;SDS011;8802;52.402;4.920;2023-05-15T04:24:12;14.48;;;13.15;;
17369;SDS011;8802;52.402;4.920;2023-05-15T04:26:38;13.30;;;11.98;;
17369;SDS011;8802;52.402;4.920;2023-05-15T04:29:05;14.32;;;12.98;;
17369;SDS011;8802;52.402;4.920;2023-05-15T04:31:34;14.00;;;12.77;;
17369;SDS011;8802;52.402;4.920;2023-05-15T04:34:02;13.70;;;12.45;;
17369;SDS011;8802;52.402;4.920;2023-05-15T04:36:29;12.45;;;11.40;;
17369;SDS011;8802;52.402;4.920;2023-05-15T04:38:56;12.85;;;11.90;;
17369;SDS011;8802;52.402;4.920;2023-05-15T04:41:23;13.15;;;12.15;;
17369;SDS011;8802;52.402;4.920;2023-05-15T04:43:50;15.30;;;13.80;;
17369;SDS011;8802;52.402;4.920;2023-05-15T04:46:17;14.80;;;13.50;;
17369;SDS011;8802;52.402;4.920;2023-05-15T04:48:45;13.98;;;12.57;;
17369;SDS011;8802;52.402;4.920;2023-05-15T04:51:12;14.48;;;13.02;;
17369;SDS011;8802;52.402;4.920;2023-05-15T04:53:39;12.57;;;11.48;;
17369;SDS011;8802;52.402;4.920;2023-05-15T04:56:06;13.02;;;11.85;;
17369;SDS011;8802;52.402;4.920;2023-05-15T04:58:33;13.48;;;12.27;;
17369;SDS011;8802;52.402;4.920;2023-05-15T05:00:59;14.05;;;12.85;;
17369;SDS011;8802;52.402;4.920;2023-05-15T05:03:26;14.02;;;12.85;;
17369;SDS011;8802;52.402;4.920;2023-05-15T05:05:55;13.88;;;12.77;;
17369;SDS011;8802;52.402;4.920;2023-05-15T05:08:22;14.98;;;13.65;;
17369;SDS011;8802;52.402;4.920;2023-05-15T05:10:53;13.23;;;12.13;;
17369;SDS011;8802;52.402;4.920;2023-05-15T05:13:20;13.93;;;12.63;;
17369;SDS011;8802;52.402;4.920;2023-05-15T05:15:47;13.60;;;12.30;;
17369;SDS011;8802;52.402;4.920;2023-05-15T05:18:14;12.82;;;11.60;;
17369;SDS011;8802;52.402;4.920;2023-05-15T05:20:41;13.95;;;12.75;;
17369;SDS011;8802;52.402;4.920;2023-05-15T05:23:09;14.25;;;12.95;;
17369;SDS011;8802;52.402;4.920;2023-05-15T05:25:38;14.00;;;12.80;;
17369;SDS011;8802;52.402;4.920;2023-05-15T05:28:05;15.18;;;13.88;;
17369;SDS011;8802;52.402;4.920;2023-05-15T05:30:32;14.68;;;13.38;;
17369;SDS011;8802;52.402;4.920;2023-05-15T05:32:59;15.93;;;14.63;;
17369;SDS011;8802;52.402;4.920;2023-05-15T05:35:26;15.10;;;13.80;;
17369;SDS011;8802;52.402;4.920;2023-05-15T05:37:53;16.63;;;15.32;;
17369;SDS011;8802;52.402;4.920;2023-05-15T05:40:21;15.07;;;13.68;;
17369;SDS011;8802;52.402;4.920;2023-05-15T05:42:48;16.55;;;15.20;;
17369;SDS011;8802;52.402;4.920;2023-05-15T05:45:15;14.50;;;13.18;;
17369;SDS011;8802;52.402;4.920;2023-05-15T05:47:42;16.70;;;15.15;;
17369;SDS011;8802;52.402;4.920;2023-05-15T05:50:09;15.68;;;14.18;;
17369;SDS011;8802;52.402;4.920;2023-05-15T05:52:36;13.70;;;12.60;;
17369;SDS011;8802;52.402;4.920;2023-05-15T05:55:03;15.38;;;14.07;;
17369;SDS011;8802;52.402;4.920;2023-05-15T05:57:32;13.88;;;12.68;;
17369;SDS011;8802;52.402;4.920;2023-05-15T05:59:59;13.15;;;11.95;;
17369;SDS011;8802;52.402;4.920;2023-05-15T06:02:26;14.27;;;12.95;;
17369;SDS011;8802;52.402;4.920;2023-05-15T06:04:53;13.55;;;12.50;;
17369;SDS011;8802;52.402;4.920;2023-05-15T06:07:20;13.02;;;12.00;;
17369;SDS011;8802;52.402;4.920;2023-05-15T06:09:47;15.80;;;14.40;;
17369;SDS011;8802;52.402;4.920;2023-05-15T06:12:14;18.30;;;16.70;;
17369;SDS011;8802;52.402;4.920;2023-05-15T06:14:43;15.30;;;14.00;;
17369;SDS011;8802;52.402;4.920;2023-05-15T06:17:10;22.25;;;20.17;;
17369;SDS011;8802;52.402;4.920;2023-05-15T06:19:37;22.75;;;20.73;;
17369;SDS011;8802;52.402;4.920;2023-05-15T06:22:04;25.73;;;23.35;;
17369;SDS011;8802;52.402;4.920;2023-05-15T06:24:31;20.00;;;18.30;;
17369;SDS011;8802;52.402;4.920;2023-05-15T06:26:57;23.77;;;21.65;;
17369;SDS011;8802;52.402;4.920;2023-05-15T06:29:25;22.92;;;20.63;;
17369;SDS011;8802;52.402;4.920;2023-05-15T06:31:53;22.63;;;20.58;;
17369;SDS011;8802;52.402;4.920;2023-05-15T06:34:20;22.52;;;20.42;;
17369;SDS011;8802;52.402;4.920;2023-05-15T06:36:47;22.40;;;20.38;;
17369;SDS011;8802;52.402;4.920;2023-05-15T06:39:14;23.45;;;21.27;;
17369;SDS011;8802;52.402;4.920;2023-05-15T06:41:41;22.33;;;20.27;;
17369;SDS011;8802;52.402;4.920;2023-05-15T06:44:08;22.77;;;20.70;;
17369;SDS011;8802;52.402;4.920;2023-05-15T06:46:34;23.25;;;20.95;;
17369;SDS011;8802;52.402;4.920;2023-05-15T06:49:03;23.17;;;20.95;;
17369;SDS011;8802;52.402;4.920;2023-05-15T06:51:30;21.00;;;18.67;;
17369;SDS011;8802;52.402;4.920;2023-05-15T06:53:57;23.67;;;21.38;;
17369;SDS011;8802;52.402;4.920;2023-05-15T06:56:23;23.80;;;21.70;;
17369;SDS011;8802;52.402;4.920;2023-05-15T06:58:50;22.13;;;20.08;;
17369;SDS011;8802;52.402;4.920;2023-05-15T07:01:17;21.77;;;19.67;;
17369;SDS011;8802;52.402;4.920;2023-05-15T07:03:44;22.45;;;20.33;;
17369;SDS011;8802;52.402;4.920;2023-05-15T07:06:12;22.38;;;20.38;;
17369;SDS011;8802;52.402;4.920;2023-05-15T07:08:39;23.08;;;20.73;;
17369;SDS011;8802;52.402;4.920;2023-05-15T07:11:06;20.38;;;18.50;;
17369;SDS011;8802;52.402;4.920;2023-05-15T07:13:33;19.58;;;17.70;;
17369;SDS011;8802;52.402;4.920;2023-05-15T07:16:01;20.27;;;18.35;;
17369;SDS011;8802;52.402;4.920;2023-05-15T07:18:28;21.17;;;19.13;;
17369;SDS011;8802;52.402;4.920;2023-05-15T07:20:55;22.45;;;20.15;;
17369;SDS011;8802;52.402;4.920;2023-05-15T07:23:24;22.13;;;20.13;;
17369;SDS011;8802;52.402;4.920;2023-05-15T07:25:53;21.50;;;19.30;;
17369;SDS011;8802;52.402;4.920;2023-05-15T07:28:20;20.98;;;18.92;;
17369;SDS011;8802;52.402;4.920;2023-05-15T07:30:47;19.42;;;17.58;;
17369;SDS011;8802;52.402;4.920;2023-05-15T07:33:14;23.65;;;21.30;;
17369;SDS011;8802;52.402;4.920;2023-05-15T07:35:41;25.98;;;23.25;;
17369;SDS011;8802;52.402;4.920;2023-05-15T07:38:08;26.67;;;23.88;;
17369;SDS011;8802;52.402;4.920;2023-05-15T07:40:36;24.42;;;22.02;;
17369;SDS011;8802;52.402;4.920;2023-05-15T07:43:03;24.83;;;22.42;;
17369;SDS011;8802;52.402;4.920;2023-05-15T07:45:30;25.50;;;23.15;;
17369;SDS011;8802;52.402;4.920;2023-05-15T07:47:57;22.83;;;20.63;;
17369;SDS011;8802;52.402;4.920;2023-05-15T07:50:24;24.90;;;22.50;;
17369;SDS011;8802;52.402;4.920;2023-05-15T07:52:51;23.65;;;21.35;;
17369;SDS011;8802;52.402;4.920;2023-05-15T07:55:18;22.50;;;20.20;;
17369;SDS011;8802;52.402;4.920;2023-05-15T07:57:46;22.95;;;20.70;;
17369;SDS011;8802;52.402;4.920;2023-05-15T08:00:13;22.27;;;20.15;;
17369;SDS011;8802;52.402;4.920;2023-05-15T08:02:40;24.88;;;21.88;;
17369;SDS011;8802;52.402;4.920;2023-05-15T08:05:10;22.50;;;20.33;;
17369;SDS011;8802;52.402;4.920;2023-05-15T08:07:37;23.80;;;21.55;;
17369;SDS011;8802;52.402;4.920;2023-05-15T08:10:04;23.58;;;21.27;;
17369;SDS011;8802;52.402;4.920;2023-05-15T08:12:31;24.50;;;22.08;;
17369;SDS011;8802;52.402;4.920;2023-05-15T08:15:00;22.48;;;20.27;;
17369;SDS011;8802;52.402;4.920;2023-05-15T08:17:27;27.92;;;25.05;;
17369;SDS011;8802;52.402;4.920;2023-05-15T08:19:54;26.52;;;23.80;;
17369;SDS011;8802;52.402;4.920;2023-05-15T08:22:21;24.08;;;21.50;;
17369;SDS011;8802;52.402;4.920;2023-05-15T08:24:48;24.55;;;22.05;;
17369;SDS011;8802;52.402;4.920;2023-05-15T08:27:15;27.95;;;21.88;;
17369;SDS011;8802;52.402;4.920;2023-05-15T08:29:41;24.70;;;22.27;;
17369;SDS011;8802;52.402;4.920;2023-05-15T08:32:10;23.52;;;21.13;;
17369;SDS011;8802;52.402;4.920;2023-05-15T08:34:37;23.20;;;20.95;;
17369;SDS011;8802;52.402;4.920;2023-05-15T08:37:04;23.13;;;20.77;;
17369;SDS011;8802;52.402;4.920;2023-05-15T08:39:31;24.27;;;21.85;;
17369;SDS011;8802;52.402;4.920;2023-05-15T08:41:59;24.05;;;21.40;;
17369;SDS011;8802;52.402;4.920;2023-05-15T08:44:32;22.63;;;20.30;;
17369;SDS011;8802;52.402;4.920;2023-05-15T08:46:59;21.75;;;19.67;;
17369;SDS011;8802;52.402;4.920;2023-05-15T08:49:30;20.27;;;18.38;;
17369;SDS011;8802;52.402;4.920;2023-05-15T08:52:02;22.02;;;19.83;;
17369;SDS011;8802;52.402;4.920;2023-05-15T08:54:30;20.88;;;18.88;;
17369;SDS011;8802;52.402;4.920;2023-05-15T08:56:57;19.60;;;17.70;;
17369;SDS011;8802;52.402;4.920;2023-05-15T08:59:25;22.27;;;20.17;;
17369;SDS011;8802;52.402;4.920;2023-05-15T09:01:52;20.20;;;18.33;;
17369;SDS011;8802;52.402;4.920;2023-05-15T09:04:20;21.35;;;19.25;;
17369;SDS011;8802;52.402;4.920;2023-05-15T09:06:48;19.90;;;18.17;;
17369;SDS011;8802;52.402;4.920;2023-05-15T09:09:15;19.35;;;17.63;;
17369;SDS011;8802;52.402;4.920;2023-05-15T09:11:43;19.50;;;17.55;;
17369;SDS011;8802;52.402;4.920;2023-05-15T09:14:11;22.05;;;19.75;;
17369;SDS011;8802;52.402;4.920;2023-05-15T09:16:38;24.35;;;22.25;;
17369;SDS011;8802;52.402;4.920;2023-05-15T09:19:05;22.58;;;20.48;;
17369;SDS011;8802;52.402;4.920;2023-05-15T09:21:32;23.13;;;20.90;;
17369;SDS011;8802;52.402;4.920;2023-05-15T09:24:17;21.80;;;19.73;;
17369;SDS011;8802;52.402;4.920;2023-05-15T09:26:46;20.00;;;18.00;;
17369;SDS011;8802;52.402;4.920;2023-05-15T09:29:26;22.60;;;20.23;;
17369;SDS011;8802;52.402;4.920;2023-05-15T09:31:53;23.17;;;20.90;;
17369;SDS011;8802;52.402;4.920;2023-05-15T09:34:27;25.48;;;22.90;;
17369;SDS011;8802;52.402;4.920;2023-05-15T09:36:55;24.77;;;22.33;;
17369;SDS011;8802;52.402;4.920;2023-05-15T09:39:23;25.88;;;23.30;;
17369;SDS011;8802;52.402;4.920;2023-05-15T09:41:50;23.95;;;21.50;;
17369;SDS011;8802;52.402;4.920;2023-05-15T09:44:17;25.25;;;22.73;;
17369;SDS011;8802;52.402;4.920;2023-05-15T09:46:45;25.58;;;22.85;;
17369;SDS011;8802;52.402;4.920;2023-05-15T09:49:12;24.60;;;22.10;;
17369;SDS011;8802;52.402;4.920;2023-05-15T09:51:41;24.48;;;22.00;;
17369;SDS011;8802;52.402;4.920;2023-05-15T09:54:12;27.75;;;24.40;;
17369;SDS011;8802;52.402;4.920;2023-05-15T09:56:43;25.15;;;22.63;;
17369;SDS011;8802;52.402;4.920;2023-05-15T09:59:11;28.10;;;25.23;;
17369;SDS011;8802;52.402;4.920;2023-05-15T10:01:41;26.60;;;24.00;;
17369;SDS011;8802;52.402;4.920;2023-05-15T10:04:09;26.33;;;23.80;;
17369;SDS011;8802;52.402;4.920;2023-05-15T10:06:37;24.92;;;22.40;;
17369;SDS011;8802;52.402;4.920;2023-05-15T10:09:05;23.77;;;21.48;;
17369;SDS011;8802;52.402;4.920;2023-05-15T10:11:33;25.98;;;23.48;;
17369;SDS011;8802;52.402;4.920;2023-05-15T10:14:02;27.98;;;25.25;;
17369;SDS011;8802;52.402;4.920;2023-05-15T10:16:32;26.73;;;24.23;;
17369;SDS011;8802;52.402;4.920;2023-05-15T10:19:02;25.73;;;23.27;;
17369;SDS011;8802;52.402;4.920;2023-05-15T10:21:30;23.58;;;21.42;;
17369;SDS011;8802;52.402;4.920;2023-05-15T10:23:58;23.48;;;21.25;;
17369;SDS011;8802;52.402;4.920;2023-05-15T10:26:28;21.83;;;19.73;;
17369;SDS011;8802;52.402;4.920;2023-05-15T10:28:59;20.23;;;18.52;;
17369;SDS011;8802;52.402;4.920;2023-05-15T10:31:28;20.15;;;18.27;;
17369;SDS011;8802;52.402;4.920;2023-05-15T10:33:56;19.52;;;17.77;;
17369;SDS011;8802;52.402;4.920;2023-05-15T10:36:24;21.80;;;19.90;;
17369;SDS011;8802;52.402;4.920;2023-05-15T10:38:51;20.35;;;18.55;;
17369;SDS011;8802;52.402;4.920;2023-05-15T10:41:19;18.20;;;16.60;;
17369;SDS011;8802;52.402;4.920;2023-05-15T10:43:47;20.33;;;18.52;;
17369;SDS011;8802;52.402;4.920;2023-05-15T10:46:14;18.30;;;16.60;;
17369;SDS011;8802;52.402;4.920;2023-05-15T10:48:43;18.08;;;16.58;;
17369;SDS011;8802;52.402;4.920;2023-05-15T10:51:14;16.75;;;15.25;;
17369;SDS011;8802;52.402;4.920;2023-05-15T10:53:41;14.98;;;13.63;;
17369;SDS011;8802;52.402;4.920;2023-05-15T10:56:11;16.58;;;14.98;;
17369;SDS011;8802;52.402;4.920;2023-05-15T10:58:38;14.65;;;13.27;;
17369;SDS011;8802;52.402;4.920;2023-05-15T11:01:22;14.43;;;13.13;;
17369;SDS011;8802;52.402;4.920;2023-05-15T11:04:06;14.00;;;12.80;;
17369;SDS011;8802;52.402;4.920;2023-05-15T11:06:37;13.43;;;12.13;;
17369;SDS011;8802;52.402;4.920;2023-05-15T11:12:01;11.55;;;10.52;;
17369;SDS011;8802;52.402;4.920;2023-05-15T11:14:29;10.15;;;9.20;;
17369;SDS011;8802;52.402;4.920;2023-05-15T11:17:00;10.30;;;9.38;;
17369;SDS011;8802;52.402;4.920;2023-05-15T11:22:30;8.85;;;7.97;;
17369;SDS011;8802;52.402;4.920;2023-05-15T11:25:00;8.50;;;7.80;;
17369;SDS011;8802;52.402;4.920;2023-05-15T11:27:30;8.30;;;7.50;;
17369;SDS011;8802;52.402;4.920;2023-05-15T11:30:11;8.68;;;7.78;;
17369;SDS011;8802;52.402;4.920;2023-05-15T11:32:39;7.72;;;6.90;;
17369;SDS011;8802;52.402;4.920;2023-05-15T11:35:09;7.70;;;7.00;;
17369;SDS011;8802;52.402;4.920;2023-05-15T11:37:39;7.88;;;7.15;;
17369;SDS011;8802;52.402;4.920;2023-05-15T11:40:11;7.57;;;6.82;;
17369;SDS011;8802;52.402;4.920;2023-05-15T11:42:39;7.45;;;6.15;;
17369;SDS011;8802;52.402;4.920;2023-05-15T11:45:07;7.53;;;5.70;;
17369;SDS011;8802;52.402;4.920;2023-05-15T11:47:35;6.63;;;5.93;;
17369;SDS011;8802;52.402;4.920;2023-05-15T11:50:03;7.63;;;6.90;;
17369;SDS011;8802;52.402;4.920;2023-05-15T11:52:32;7.25;;;6.22;;
17369;SDS011;8802;52.402;4.920;2023-05-15T11:55:00;10.02;;;7.93;;
17369;SDS011;8802;52.402;4.920;2023-05-15T11:57:28;8.20;;;7.32;;
17369;SDS011;8802;52.402;4.920;2023-05-15T11:59:55;11.13;;;8.90;;
17369;SDS011;8802;52.402;4.920;2023-05-15T12:02:22;11.40;;;9.75;;
17369;SDS011;8802;52.402;4.920;2023-05-15T12:04:49;11.27;;;9.80;;
17369;SDS011;8802;52.402;4.920;2023-05-15T12:07:16;11.82;;;9.90;;
17369;SDS011;8802;52.402;4.920;2023-05-15T12:09:46;14.00;;;12.13;;
17369;SDS011;8802;52.402;4.920;2023-05-15T12:12:17;11.55;;;9.93;;
17369;SDS011;8802;52.402;4.920;2023-05-15T12:14:44;12.88;;;11.23;;
17369;SDS011;8802;52.402;4.920;2023-05-15T12:17:11;14.23;;;11.38;;
17369;SDS011;8802;52.402;4.920;2023-05-15T12:19:38;15.27;;;12.35;;
17369;SDS011;8802;52.402;4.920;2023-05-15T12:22:05;14.20;;;11.45;;
17369;SDS011;8802;52.402;4.920;2023-05-15T12:24:36;12.95;;;10.90;;
17369;SDS011;8802;52.402;4.920;2023-05-15T12:27:05;11.50;;;10.30;;
17369;SDS011;8802;52.402;4.920;2023-05-15T12:29:33;12.10;;;9.75;;
17369;SDS011;8802;52.402;4.920;2023-05-15T12:32:01;13.80;;;10.48;;
17369;SDS011;8802;52.402;4.920;2023-05-15T12:34:28;11.65;;;9.02;;
17369;SDS011;8802;52.402;4.920;2023-05-15T12:36:55;12.35;;;9.88;;
17369;SDS011;8802;52.402;4.920;2023-05-15T12:39:23;10.57;;;7.57;;
17369;SDS011;8802;52.402;4.920;2023-05-15T12:41:50;5.93;;;5.30;;
17369;SDS011;8802;52.402;4.920;2023-05-15T12:44:19;6.13;;;4.20;;
17369;SDS011;8802;52.402;4.920;2023-05-15T12:46:46;5.50;;;3.80;;
17369;SDS011;8802;52.402;4.920;2023-05-15T12:49:19;5.63;;;3.80;;
17369;SDS011;8802;52.402;4.920;2023-05-15T12:51:46;5.05;;;3.63;;
17369;SDS011;8802;52.402;4.920;2023-05-15T12:54:17;4.28;;;3.63;;
17369;SDS011;8802;52.402;4.920;2023-05-15T12:56:46;5.45;;;4.32;;
17369;SDS011;8802;52.402;4.920;2023-05-15T12:59:13;6.38;;;4.40;;
17369;SDS011;8802;52.402;4.920;2023-05-15T13:01:41;6.50;;;3.88;;
17369;SDS011;8802;52.402;4.920;2023-05-15T13:04:08;5.85;;;3.60;;
17369;SDS011;8802;52.402;4.920;2023-05-15T13:06:37;6.95;;;3.53;;
17369;SDS011;8802;52.402;4.920;2023-05-15T13:09:04;7.10;;;3.50;;
17369;SDS011;8802;52.402;4.920;2023-05-15T13:11:31;5.50;;;3.20;;
17369;SDS011;8802;52.402;4.920;2023-05-15T13:13:59;6.50;;;2.85;;
17369;SDS011;8802;52.402;4.920;2023-05-15T13:16:26;4.43;;;3.05;;
17369;SDS011;8802;52.402;4.920;2023-05-15T13:18:56;5.95;;;2.78;;
17369;SDS011;8802;52.402;4.920;2023-05-15T13:21:23;5.35;;;3.08;;
17369;SDS011;8802;52.402;4.920;2023-05-15T13:23:50;4.53;;;2.70;;
17369;SDS011;8802;52.402;4.920;2023-05-15T13:26:17;7.07;;;3.38;;
17369;SDS011;8802;52.402;4.920;2023-05-15T13:28:44;6.65;;;3.33;;
17369;SDS011;8802;52.402;4.920;2023-05-15T13:31:11;6.15;;;2.78;;
17369;SDS011;8802;52.402;4.920;2023-05-15T13:33:37;6.35;;;2.72;;
17369;SDS011;8802;52.402;4.920;2023-05-15T13:36:06;5.25;;;2.90;;
17369;SDS011;8802;52.402;4.920;2023-05-15T13:38:33;6.00;;;3.10;;
17369;SDS011;8802;52.402;4.920;2023-05-15T13:41:00;4.63;;;2.92;;
17369;SDS011;8802;52.402;4.920;2023-05-15T13:43:27;5.05;;;2.45;;
17369;SDS011;8802;52.402;4.920;2023-05-15T13:45:54;4.43;;;2.17;;
17369;SDS011;8802;52.402;4.920;2023-05-15T13:48:21;4.10;;;2.30;;
17369;SDS011;8802;52.402;4.920;2023-05-15T13:50:47;3.47;;;2.00;;
17369;SDS011;8802;52.402;4.920;2023-05-15T13:53:16;3.10;;;2.05;;
17369;SDS011;8802;52.402;4.920;2023-05-15T13:55:43;6.60;;;2.45;;
17369;SDS011;8802;52.402;4.920;2023-05-15T13:58:10;4.30;;;2.20;;
17369;SDS011;8802;52.402;4.920;2023-05-15T14:00:37;4.03;;;2.00;;
17369;SDS011;8802;52.402;4.920;2023-05-15T14:03:04;5.53;;;1.90;;
17369;SDS011;8802;52.402;4.920;2023-05-15T14:05:31;6.25;;;2.15;;
17369;SDS011;8802;52.402;4.920;2023-05-15T14:07:58;3.17;;;2.00;;
17369;SDS011;8802;52.402;4.920;2023-05-15T14:10:26;1.67;;;1.58;;
17369;SDS011;8802;52.402;4.920;2023-05-15T14:12:53;1.85;;;1.75;;
17369;SDS011;8802;52.402;4.920;2023-05-15T14:15:20;3.05;;;1.70;;
17369;SDS011;8802;52.402;4.920;2023-05-15T14:17:47;3.35;;;1.88;;
17369;SDS011;8802;52.402;4.920;2023-05-15T14:20:14;2.95;;;1.90;;
17369;SDS011;8802;52.402;4.920;2023-05-15T14:22:41;2.85;;;2.00;;
17369;SDS011;8802;52.402;4.920;2023-05-15T14:25:08;3.00;;;2.10;;
17369;SDS011;8802;52.402;4.920;2023-05-15T14:27:37;3.85;;;2.00;;
17369;SDS011;8802;52.402;4.920;2023-05-15T14:30:04;3.67;;;2.15;;
17369;SDS011;8802;52.402;4.920;2023-05-15T14:32:32;4.75;;;2.10;;
17369;SDS011;8802;52.402;4.920;2023-05-15T14:34:59;4.45;;;2.00;;
17369;SDS011;8802;52.402;4.920;2023-05-15T14:37:26;4.93;;;2.47;;
17369;SDS011;8802;52.402;4.920;2023-05-15T14:39:52;5.25;;;2.20;;
17369;SDS011;8802;52.402;4.920;2023-05-15T14:42:20;5.90;;;2.25;;
17369;SDS011;8802;52.402;4.920;2023-05-15T14:44:48;4.95;;;2.90;;
17369;SDS011;8802;52.402;4.920;2023-05-15T14:47:15;4.05;;;3.10;;
17369;SDS011;8802;52.402;4.920;2023-05-15T14:49:42;2.78;;;2.45;;
17369;SDS011;8802;52.402;4.920;2023-05-15T14:52:09;3.60;;;2.22;;